Time;durP1;ratioP1;P1;durP2;ratioP2;P2;SDS_P1;SDS_P2;PMS_P1;PMS_P2;Temp;Humidity;BMP_temperature;BMP_pressure;BME280_temperature;BME280_humidity;BME280_pressure;Samples;Min_cycle;Max_cycle;Signal;HPM_P1;HPM_P2
2021/04/08 00:00:20;;;;;;;0.68;0.63;;;6.70;70.00;;;;;;5073166;28;20527;-63
2021/04/08 00:02:46;;;;;;;0.80;0.80;;;6.70;70.20;;;;;;5072187;28;20032;-63
2021/04/08 00:05:13;;;;;;;1.25;0.95;;;6.70;70.40;;;;;;5073271;28;20112;-63
2021/04/08 00:07:39;;;;;;;9.15;1.88;;;6.60;70.40;;;;;;5072861;28;20021;-63
2021/04/08 00:10:07;;;;;;;10.65;1.80;;;6.50;70.50;;;;;;5072184;28;20091;-63
2021/04/08 00:12:32;;;;;;;6.57;1.30;;;6.50;70.70;;;;;;5072785;28;20035;-63
2021/04/08 00:14:58;;;;;;;2.95;0.98;;;6.50;70.90;;;;;;5072907;28;20028;-63
2021/04/08 00:17:24;;;;;;;5.05;1.10;;;6.50;71.60;;;;;;5072199;28;20178;-63
2021/04/08 00:19:50;;;;;;;1.58;1.20;;;6.40;71.10;;;;;;5072535;28;20025;-63
2021/04/08 00:22:15;;;;;;;4.28;1.35;;;6.50;71.10;;;;;;5072599;28;20028;-64
2021/04/08 00:24:41;;;;;;;4.32;1.48;;;6.50;71.10;;;;;;5072184;28;20032;-64
2021/04/08 00:27:07;;;;;;;6.53;1.50;;;6.50;70.50;;;;;;5071942;28;20055;-64
2021/04/08 00:29:33;;;;;;;11.40;1.83;;;6.60;70.10;;;;;;5072523;28;20533;-64
2021/04/08 00:31:58;;;;;;;8.80;1.60;;;6.50;69.60;;;;;;5072113;28;20105;-64
2021/04/08 00:34:24;;;;;;;6.53;2.03;;;6.60;69.70;;;;;;5072895;28;20381;-64
2021/04/08 00:36:50;;;;;;;6.20;1.00;;;6.50;69.70;;;;;;5072729;28;20472;-64
2021/04/08 00:39:15;;;;;;;3.50;1.15;;;6.60;69.80;;;;;;5072032;28;20025;-63
2021/04/08 00:41:42;;;;;;;11.38;1.80;;;6.60;69.90;;;;;;5072787;28;20020;-63
2021/04/08 00:44:08;;;;;;;7.25;1.27;;;6.70;70.10;;;;;;5071750;28;20028;-63
2021/04/08 00:46:34;;;;;;;3.50;0.95;;;6.70;70.10;;;;;;5072420;28;20070;-64
2021/04/08 00:49:00;;;;;;;12.48;1.70;;;6.70;70.20;;;;;;5072524;28;20027;-64
2021/04/08 00:51:26;;;;;;;13.77;1.80;;;6.70;70.30;;;;;;5066489;28;20054;-63
2021/04/08 00:53:53;;;;;;;14.23;2.35;;;6.70;70.30;;;;;;5099240;28;20103;-64
2021/04/08 00:56:20;;;;;;;8.00;1.70;;;6.70;70.30;;;;;;5099381;28;20107;-63
2021/04/08 00:58:46;;;;;;;16.77;3.45;;;6.70;70.30;;;;;;5098594;28;20034;-64
2021/04/08 01:01:12;;;;;;;12.30;1.50;;;6.70;70.30;;;;;;5099295;28;20028;-63
2021/04/08 01:03:39;;;;;;;16.27;1.75;;;6.70;71.00;;;;;;5099304;28;20046;-63
2021/04/08 01:06:06;;;;;;;9.02;2.58;;;6.60;70.20;;;;;;5098724;28;20032;-64
2021/04/08 01:08:32;;;;;;;20.92;2.35;;;6.70;70.20;;;;;;5099405;28;20031;-64
2021/04/08 01:10:58;;;;;;;21.08;2.75;;;6.60;70.20;;;;;;5099027;28;20089;-64
2021/04/08 01:13:25;;;;;;;5.05;0.85;;;6.60;70.20;;;;;;5098579;28;20024;-64
2021/04/08 01:15:51;;;;;;;4.28;1.00;;;6.60;71.00;;;;;;5099450;28;20043;-64
2021/04/08 01:18:38;;;;;;;0.95;0.75;;;6.60;70.50;;;;;;5099243;28;20039;-64
2021/04/08 01:21:24;;;;;;;3.47;1.70;;;6.60;70.60;;;;;;5098322;28;20031;-63
2021/04/08 01:24:07;;;;;;;0.50;0.50;;;6.60;70.70;;;;;;5099179;28;20032;-63
2021/04/08 01:27:03;;;;;;;0.43;0.43;;;6.60;70.80;;;;;;5084067;28;20103;-63
2021/04/08 01:29:54;;;;;;;5.60;0.98;;;6.50;71.10;;;;;;5099136;28;20044;-63
2021/04/08 01:32:21;;;;;;;5.07;1.35;;;6.40;71.00;;;;;;5085280;28;20035;-63
2021/04/08 01:34:50;;;;;;;8.30;2.28;;;6.30;71.10;;;;;;5098626;28;20074;-63
2021/04/08 01:37:24;;;;;;;8.10;2.13;;;6.20;71.60;;;;;;5099125;28;20052;-63
2021/04/08 01:39:51;;;;;;;2.47;1.08;;;6.10;72.20;;;;;;5099207;28;20116;-63
2021/04/08 01:42:20;;;;;;;2.30;1.30;;;6.00;72.80;;;;;;5098163;28;20036;-63
2021/04/08 01:44:47;;;;;;;0.65;0.50;;;5.90;73.20;;;;;;5098958;28;20050;-63
2021/04/08 01:47:14;;;;;;;1.70;0.90;;;5.90;73.50;;;;;;5099014;28;20047;-63
2021/04/08 01:49:43;;;;;;;9.93;1.77;;;5.90;73.60;;;;;;5098758;28;20040;-63
2021/04/08 01:52:14;;;;;;;5.25;1.48;;;5.90;73.60;;;;;;5085277;28;20044;-63
2021/04/08 01:54:41;;;;;;;3.58;1.05;;;5.90;73.50;;;;;;5077964;28;20464;-63
2021/04/08 01:57:09;;;;;;;8.60;1.63;;;6.00;73.40;;;;;;5078360;28;20031;-63
2021/04/08 01:59:37;;;;;;;6.28;1.52;;;6.00;73.30;;;;;;5078165;28;20089;-63
2021/04/08 02:02:03;;;;;;;5.18;0.90;;;6.00;73.00;;;;;;5077653;28;20032;-63
2021/04/08 02:04:31;;;;;;;8.43;1.33;;;6.10;72.90;;;;;;5075046;28;20361;-63
2021/04/08 02:07:00;;;;;;;3.38;1.40;;;6.10;72.80;;;;;;5075488;28;20024;-63
2021/04/08 02:09:26;;;;;;;7.43;1.38;;;6.20;72.60;;;;;;5073844;28;20504;-64
2021/04/08 02:11:54;;;;;;;6.45;1.02;;;6.20;72.50;;;;;;5073346;28;20093;-63
2021/04/08 02:14:20;;;;;;;9.43;1.58;;;6.30;72.40;;;;;;5074405;28;20424;-64
2021/04/08 02:16:47;;;;;;;3.42;1.15;;;6.30;72.30;;;;;;5074426;28;20044;-63
2021/04/08 02:19:14;;;;;;;5.03;0.82;;;6.30;72.20;;;;;;5075127;28;20031;-63
2021/04/08 02:21:41;;;;;;;8.00;1.30;;;6.30;72.20;;;;;;5075053;28;20024;-63
2021/04/08 02:24:10;;;;;;;3.33;1.55;;;6.20;71.90;;;;;;5074327;28;20028;-63
2021/04/08 02:26:39;;;;;;;5.28;1.25;;;6.20;71.90;;;;;;5075187;28;20036;-63
2021/04/08 02:29:05;;;;;;;3.17;1.27;;;6.10;72.10;;;;;;5074772;28;20729;-64
2021/04/08 02:31:36;;;;;;;2.90;0.90;;;5.90;72.40;;;;;;5074468;28;20085;-63
2021/04/08 02:34:02;;;;;;;1.40;0.75;;;5.80;72.80;;;;;;5074836;28;20025;-63
2021/04/08 02:36:28;;;;;;;0.50;0.50;;;5.80;73.20;;;;;;5074624;28;20032;-63
2021/04/08 02:38:53;;;;;;;1.38;0.95;;;5.70;73.40;;;;;;5074183;28;20024;-63
2021/04/08 02:41:20;;;;;;;5.05;1.10;;;5.70;73.50;;;;;;5074822;28;20033;-63
2021/04/08 02:43:45;;;;;;;6.13;1.58;;;5.70;73.60;;;;;;5074191;28;20077;-63
2021/04/08 02:46:11;;;;;;;1.20;0.90;;;5.60;73.70;;;;;;5074375;28;20475;-63
2021/04/08 02:48:37;;;;;;;1.80;1.13;;;5.60;73.80;;;;;;5074566;28;20017;-63
2021/04/08 02:51:14;;;;;;;1.35;1.15;;;5.50;73.80;;;;;;5075521;28;20085;-63
2021/04/08 02:53:54;;;;;;;4.57;0.95;;;5.60;74.10;;;;;;5074711;28;20446;-63
2021/04/08 02:56:28;;;;;;;4.82;1.70;;;5.50;74.20;;;;;;5074474;28;20046;-64
2021/04/08 02:58:58;;;;;;;2.40;0.75;;;5.50;74.30;;;;;;5073725;28;20464;-64
2021/04/08 03:01:27;;;;;;;4.13;1.00;;;5.50;74.40;;;;;;5074196;28;20041;-63
2021/04/08 03:03:55;;;;;;;1.75;0.93;;;5.50;74.70;;;;;;5074187;28;20556;-63
2021/04/08 03:06:22;;;;;;;3.55;1.65;;;5.50;74.80;;;;;;5073574;28;20032;-63
2021/04/08 03:08:50;;;;;;;5.45;1.48;;;5.40;74.80;;;;;;5074298;28;20044;-63
2021/04/08 03:11:40;;;;;;;1.25;1.13;;;5.50;75.00;;;;;;5074009;28;20051;-63
2021/04/08 03:14:08;;;;;;;6.43;0.75;;;5.40;75.10;;;;;;5073435;28;20036;-63
2021/04/08 03:16:47;;;;;;;1.42;1.00;;;5.40;75.20;;;;;;5072827;28;20047;-63
2021/04/08 03:19:23;;;;;;;5.57;1.50;;;5.40;75.30;;;;;;5073357;28;20055;-63
2021/04/08 03:21:50;;;;;;;0.60;0.60;;;5.40;75.40;;;;;;5073908;28;20035;-64
2021/04/08 03:24:18;;;;;;;6.28;1.17;;;5.40;75.40;;;;;;5073943;28;20087;-63
2021/04/08 03:26:45;;;;;;;1.73;0.90;;;5.30;75.30;;;;;;5058816;28;20044;-64
2021/04/08 03:29:12;;;;;;;8.95;1.13;;;5.40;75.30;;;;;;5073812;28;20033;-63
2021/04/08 03:31:44;;;;;;;4.57;1.17;;;5.40;75.30;;;;;;5073687;28;20044;-63
2021/04/08 03:34:10;;;;;;;0.60;0.60;;;5.40;75.40;;;;;;5059910;28;20028;-63
2021/04/08 03:36:37;;;;;;;2.10;1.40;;;5.30;75.30;;;;;;5073644;28;20390;-63
2021/04/08 03:39:05;;;;;;;0.50;0.50;;;5.40;75.30;;;;;;5073326;28;20070;-63
2021/04/08 03:41:38;;;;;;;0.65;0.65;;;5.40;75.30;;;;;;5072649;28;20419;-63
2021/04/08 03:44:07;;;;;;;0.82;0.80;;;5.40;75.40;;;;;;5073439;28;20028;-64
2021/04/08 03:46:38;;;;;;;1.88;0.85;;;5.40;75.40;;;;;;5073626;28;20041;-63
2021/04/08 03:49:07;;;;;;;0.50;0.50;;;5.40;75.40;;;;;;5072631;28;20032;-63
2021/04/08 03:51:34;;;;;;;2.75;1.08;;;5.40;75.40;;;;;;5064198;28;20487;-63
2021/04/08 03:54:04;;;;;;;2.10;1.02;;;5.30;75.40;;;;;;5092479;28;20032;-63
2021/04/08 03:56:32;;;;;;;6.88;1.17;;;5.30;75.40;;;;;;5093649;28;20039;-62
2021/04/08 03:59:03;;;;;;;1.13;1.05;;;5.40;75.50;;;;;;5093327;28;20020;-64
2021/04/08 04:01:29;;;;;;;0.98;0.70;;;5.30;75.50;;;;;;5092730;28;20032;-63
2021/04/08 04:03:57;;;;;;;13.18;1.45;;;5.30;75.60;;;;;;5093326;28;20032;-63
2021/04/08 04:06:23;;;;;;;0.80;0.80;;;5.30;75.60;;;;;;5084916;28;20028;-64
2021/04/08 04:08:49;;;;;;;2.03;1.10;;;5.30;75.60;;;;;;5092631;28;20108;-64
2021/04/08 04:11:15;;;;;;;2.47;1.25;;;5.30;75.60;;;;;;5092625;28;20123;-64
2021/04/08 04:13:46;;;;;;;0.40;0.40;;;5.30;75.60;;;;;;5093461;28;20028;-65
2021/04/08 04:16:14;;;;;;;3.40;0.80;;;5.30;75.60;;;;;;5091669;28;20038;-64
2021/04/08 04:18:40;;;;;;;0.93;0.85;;;5.30;75.60;;;;;;5092905;28;20038;-67
2021/04/08 04:21:06;;;;;;;1.55;1.23;;;5.40;75.60;;;;;;5092557;28;20429;-63
2021/04/08 04:23:31;;;;;;;0.60;0.60;;;5.30;75.40;;;;;;5089874;28;20024;-64
2021/04/08 04:25:57;;;;;;;1.15;1.00;;;5.40;75.40;;;;;;5073195;28;20035;-64
2021/04/08 04:28:22;;;;;;;0.52;0.52;;;5.40;75.40;;;;;;5089807;28;20111;-64
2021/04/08 04:30:48;;;;;;;0.50;0.50;;;5.30;75.20;;;;;;5092151;28;20093;-64
2021/04/08 04:33:15;;;;;;;6.80;1.55;;;5.40;75.20;;;;;;5092848;28;20106;-64
2021/04/08 04:35:40;;;;;;;0.57;0.57;;;5.30;75.10;;;;;;5092628;28;20035;-64
2021/04/08 04:38:06;;;;;;;0.75;0.57;;;5.30;75.00;;;;;;5092283;28;20024;-64
2021/04/08 04:40:32;;;;;;;1.63;1.17;;;5.30;75.00;;;;;;5092790;28;20370;-64
2021/04/08 04:42:57;;;;;;;4.68;0.98;;;5.30;74.90;;;;;;5092751;28;20462;-64
2021/04/08 04:45:23;;;;;;;1.35;0.82;;;5.30;74.90;;;;;;5091720;28;20028;-64
2021/04/08 04:47:49;;;;;;;1.83;1.23;;;5.30;75.00;;;;;;5092639;28;20035;-64
2021/04/08 04:50:15;;;;;;;4.95;1.70;;;5.20;75.10;;;;;;5091751;28;20044;-64
2021/04/08 04:52:41;;;;;;;8.23;1.98;;;5.20;75.20;;;;;;5076556;28;20127;-64
2021/04/08 04:55:08;;;;;;;7.10;1.85;;;5.10;75.40;;;;;;5054485;28;20033;-64
2021/04/08 04:57:33;;;;;;;10.45;1.75;;;5.10;75.70;;;;;;5070827;28;20028;-64
2021/04/08 04:59:59;;;;;;;7.68;1.33;;;5.00;76.00;;;;;;5072511;28;20036;-64
2021/04/08 05:02:25;;;;;;;4.85;1.40;;;4.90;76.50;;;;;;5072014;28;20033;-64
2021/04/08 05:04:50;;;;;;;2.65;1.20;;;4.90;76.90;;;;;;5071631;28;20033;-64
2021/04/08 05:07:16;;;;;;;2.60;1.20;;;4.80;77.30;;;;;;5053348;28;20082;-64
2021/04/08 05:09:42;;;;;;;6.93;1.15;;;4.80;77.70;;;;;;5072161;28;20047;-64
2021/04/08 05:12:08;;;;;;;2.85;1.20;;;4.70;77.80;;;;;;5071714;28;20043;-64
2021/04/08 05:14:33;;;;;;;3.03;1.33;;;4.70;78.00;;;;;;5071985;28;20103;-64
2021/04/08 05:17:00;;;;;;;6.38;1.42;;;4.70;78.10;;;;;;5071041;28;20468;-64
2021/04/08 05:19:26;;;;;;;5.65;1.45;;;4.70;78.90;;;;;;5071259;28;20032;-69
2021/04/08 05:21:52;;;;;;;3.13;1.13;;;4.70;78.40;;;;;;5072181;28;20028;-69
2021/04/08 05:24:18;;;;;;;8.75;1.60;;;4.70;78.50;;;;;;5071448;28;20040;-69
2021/04/08 05:26:45;;;;;;;0.85;0.75;;;4.70;78.60;;;;;;5070590;28;20033;-70
2021/04/08 05:29:10;;;;;;;6.45;1.30;;;4.70;78.80;;;;;;5068842;28;20495;-64
2021/04/08 05:31:36;;;;;;;4.85;1.65;;;4.70;78.90;;;;;;5071612;28;20033;-65
2021/04/08 05:34:02;;;;;;;3.20;1.05;;;4.70;78.90;;;;;;5070273;28;20047;-65
2021/04/08 05:36:27;;;;;;;5.30;1.38;;;4.70;78.90;;;;;;5071018;28;20066;-65
2021/04/08 05:38:53;;;;;;;6.53;1.20;;;4.70;79.00;;;;;;5054563;28;20025;-65
2021/04/08 05:41:19;;;;;;;3.22;1.10;;;4.70;79.10;;;;;;5074050;28;20036;-65
2021/04/08 05:43:44;;;;;;;3.58;1.13;;;4.70;79.20;;;;;;5073819;28;20043;-65
2021/04/08 05:46:12;;;;;;;5.47;1.38;;;4.60;79.30;;;;;;5074502;28;20024;-64
2021/04/08 05:48:37;;;;;;;1.45;1.02;;;4.60;79.40;;;;;;5074298;28;20028;-65
2021/04/08 05:51:04;;;;;;;3.90;1.20;;;4.60;79.50;;;;;;5058121;28;20395;-64
2021/04/08 05:53:29;;;;;;;5.47;1.38;;;4.70;79.70;;;;;;5078349;28;20032;-65
2021/04/08 05:55:56;;;;;;;0.85;0.85;;;4.70;79.80;;;;;;5075223;28;20044;-65
2021/04/08 05:58:22;;;;;;;3.40;1.30;;;4.60;79.80;;;;;;5076341;28;20365;-65
2021/04/08 06:00:47;;;;;;;1.98;1.00;;;4.70;79.80;;;;;;5080577;28;20043;-65
2021/04/08 06:03:13;;;;;;;1.00;0.90;;;4.70;79.80;;;;;;5075986;28;20027;-67
2021/04/08 06:05:40;;;;;;;2.97;0.90;;;4.70;80.40;;;;;;5075584;28;20441;-67
2021/04/08 06:08:06;;;;;;;5.03;0.88;;;4.70;79.80;;;;;;5078073;28;20036;-67
2021/04/08 06:10:32;;;;;;;1.17;1.08;;;4.80;79.80;;;;;;5074716;28;20051;-68
2021/04/08 06:12:58;;;;;;;0.80;0.80;;;4.80;79.70;;;;;;5092364;28;20463;-68
2021/04/08 06:15:24;;;;;;;3.55;1.38;;;4.80;79.60;;;;;;5088536;28;20023;-66
2021/04/08 06:17:49;;;;;;;8.70;1.27;;;4.90;79.60;;;;;;5088858;28;20024;-64
2021/04/08 06:20:16;;;;;;;0.80;0.80;;;4.90;79.60;;;;;;5076235;28;20055;-62
2021/04/08 06:22:42;;;;;;;2.22;1.00;;;4.90;79.60;;;;;;5086447;28;20047;-63
2021/04/08 06:25:08;;;;;;;8.25;1.15;;;4.90;79.60;;;;;;5073765;28;20468;-65
2021/04/08 06:27:35;;;;;;;1.15;1.10;;;4.90;79.60;;;;;;5078117;28;20028;-63
2021/04/08 06:30:03;;;;;;;4.00;1.40;;;5.00;79.60;;;;;;5078002;28;20042;-62
2021/04/08 06:32:29;;;;;;;4.35;1.15;;;5.00;79.70;;;;;;5078594;28;20089;-65
2021/04/08 06:34:54;;;;;;;3.17;1.30;;;5.00;79.80;;;;;;5087262;28;20115;-64
2021/04/08 06:37:20;;;;;;;3.25;1.25;;;5.00;80.00;;;;;;5087062;28;20484;-64
2021/04/08 06:39:46;;;;;;;5.57;1.38;;;5.00;80.00;;;;;;5084984;28;20036;-64
2021/04/08 06:42:17;;;;;;;3.90;1.23;;;5.00;80.10;;;;;;5079528;28;20025;-64
2021/04/08 06:44:48;;;;;;;10.32;1.55;;;4.90;80.20;;;;;;5079904;28;20032;-64
2021/04/08 06:47:19;;;;;;;2.72;1.35;;;5.00;80.30;;;;;;5077469;28;20490;-64
2021/04/08 06:49:49;;;;;;;13.10;1.40;;;5.00;80.40;;;;;;5074045;28;20043;-64
2021/04/08 06:52:18;;;;;;;12.40;1.38;;;4.90;80.50;;;;;;5065143;28;20531;-64
2021/04/08 06:54:45;;;;;;;2.13;1.13;;;4.90;80.60;;;;;;5054711;28;20514;-64
2021/04/08 06:57:11;;;;;;;1.23;1.02;;;5.00;80.70;;;;;;5067730;28;20395;-64
2021/04/08 06:59:38;;;;;;;5.82;1.10;;;5.00;80.70;;;;;;5060848;28;20042;-64
2021/04/08 07:02:05;;;;;;;7.70;1.52;;;5.00;80.60;;;;;;5074329;28;20052;-64
2021/04/08 07:04:32;;;;;;;4.38;1.30;;;5.10;80.50;;;;;;5073189;28;20042;-64
2021/04/08 07:06:57;;;;;;;1.85;1.13;;;5.20;80.50;;;;;;5072141;28;20098;-64
2021/04/08 07:09:23;;;;;;;0.82;0.63;;;5.10;80.40;;;;;;5073804;28;20028;-64
2021/04/08 07:11:49;;;;;;;4.93;1.20;;;5.20;80.40;;;;;;5064410;28;20083;-64
2021/04/08 07:14:15;;;;;;;1.55;1.05;;;5.20;80.40;;;;;;5068673;28;20139;-64
2021/04/08 07:16:41;;;;;;;3.13;0.93;;;5.30;80.40;;;;;;5073384;28;20123;-64
2021/04/08 07:19:07;;;;;;;1.88;1.10;;;5.30;80.30;;;;;;5072702;28;20028;-64
2021/04/08 07:21:37;;;;;;;0.50;0.50;;;5.40;80.40;;;;;;5068794;28;20033;-64
2021/04/08 07:24:20;;;;;;;2.30;0.93;;;5.30;80.30;;;;;;5073886;28;20033;-65
2021/04/08 07:27:03;;;;;;;12.80;1.27;;;5.40;80.30;;;;;;5071133;28;20521;-65
2021/04/08 07:29:38;;;;;;;3.88;1.77;;;5.50;80.30;;;;;;5074745;28;20056;-62
2021/04/08 07:32:07;;;;;;;3.00;1.38;;;5.50;80.20;;;;;;5073480;28;20032;-67
2021/04/08 07:34:35;;;;;;;4.38;1.15;;;5.50;80.20;;;;;;5059663;28;20056;-63
2021/04/08 07:37:02;;;;;;;1.23;1.00;;;5.50;80.30;;;;;;5074644;28;20127;-67
2021/04/08 07:39:38;;;;;;;2.20;1.15;;;5.50;80.30;;;;;;5066640;28;20032;-66
2021/04/08 07:42:07;;;;;;;0.68;0.68;;;5.60;80.30;;;;;;5072957;28;20032;-67
2021/04/08 07:44:46;;;;;;;6.38;1.33;;;5.60;80.30;;;;;;5066932;28;20035;-66
2021/04/08 07:47:24;;;;;;;3.53;0.65;;;5.60;80.30;;;;;;5067744;28;20025;-67
2021/04/08 07:49:56;;;;;;;1.15;0.77;;;5.70;80.30;;;;;;5069457;28;20498;-67
2021/04/08 07:52:28;;;;;;;3.00;1.05;;;5.70;80.30;;;;;;5072884;28;22032;-67
2021/04/08 07:54:58;;;;;;;8.90;1.40;;;5.70;80.30;;;;;;5072479;28;20028;-67
2021/04/08 07:57:24;;;;;;;1.55;0.90;;;5.70;80.30;;;;;;5072634;28;20116;-67
2021/04/08 07:59:50;;;;;;;3.70;1.15;;;5.70;80.30;;;;;;5073283;28;20111;-67
2021/04/08 08:02:21;;;;;;;1.98;1.02;;;5.80;80.30;;;;;;5071551;28;20094;-65
2021/04/08 08:04:47;;;;;;;5.38;1.42;;;5.80;80.30;;;;;;5072500;28;20510;-64
2021/04/08 08:07:27;;;;;;;3.28;1.40;;;5.80;80.30;;;;;;5072130;28;20025;-64
2021/04/08 08:09:52;;;;;;;0.80;0.80;;;5.80;80.40;;;;;;5063167;28;20044;-64
2021/04/08 08:12:18;;;;;;;3.25;1.25;;;5.80;80.30;;;;;;5072138;28;20383;-64
2021/04/08 08:14:44;;;;;;;7.03;1.40;;;5.90;80.30;;;;;;5050616;28;20056;-64
2021/04/08 08:17:13;;;;;;;2.10;1.05;;;5.90;80.30;;;;;;5072716;28;20060;-64
2021/04/08 08:19:43;;;;;;;3.72;0.85;;;5.90;80.30;;;;;;5072861;28;20391;-64
2021/04/08 08:22:33;;;;;;;2.20;1.10;;;6.00;80.40;;;;;;5071907;28;20102;-64
2021/04/08 08:25:00;;;;;;;2.10;1.13;;;6.00;80.30;;;;;;5072338;28;20479;-64
2021/04/08 08:27:41;;;;;;;1.55;1.13;;;6.00;80.20;;;;;;5072763;28;20048;-64
2021/04/08 08:30:15;;;;;;;7.65;1.15;;;6.10;80.20;;;;;;5071221;28;20040;-64
2021/04/08 08:33:05;;;;;;;0.60;0.60;;;6.10;80.20;;;;;;5066493;28;20598;-64
2021/04/08 08:35:31;;;;;;;2.08;1.00;;;6.10;80.10;;;;;;5071572;28;20032;-64
2021/04/08 08:38:07;;;;;;;1.70;1.20;;;6.10;79.90;;;;;;5072467;28;20463;-64
2021/04/08 08:40:33;;;;;;;3.92;0.80;;;6.20;79.90;;;;;;5072093;28;20419;-64
2021/04/08 08:43:00;;;;;;;3.03;1.42;;;6.20;79.90;;;;;;5053842;28;20033;-64
2021/04/08 08:45:26;;;;;;;19.58;2.03;;;6.20;79.90;;;;;;5072188;28;20044;-64
2021/04/08 08:47:53;;;;;;;1.85;1.10;;;6.30;79.80;;;;;;5072578;28;20066;-64
2021/04/08 08:50:19;;;;;;;5.18;1.30;;;6.30;79.70;;;;;;5071741;28;20044;-64
2021/04/08 08:52:50;;;;;;;6.90;1.45;;;6.30;79.70;;;;;;5071917;28;20060;-64
2021/04/08 08:55:18;;;;;;;4.57;1.48;;;6.30;79.90;;;;;;5072831;28;20040;-64
2021/04/08 08:57:46;;;;;;;4.05;1.45;;;6.30;80.00;;;;;;5071499;28;20100;-64
2021/04/08 09:00:15;;;;;;;3.08;1.00;;;6.40;80.10;;;;;;5072508;28;20128;-64
2021/04/08 09:02:43;;;;;;;3.83;1.20;;;6.40;80.10;;;;;;5071702;28;20032;-64
2021/04/08 09:05:20;;;;;;;8.05;1.60;;;6.40;80.10;;;;;;5071354;28;20559;-64
2021/04/08 09:07:50;;;;;;;5.00;0.98;;;6.40;79.90;;;;;;5072241;28;20086;-64
2021/04/08 09:10:28;;;;;;;1.63;1.08;;;6.40;80.60;;;;;;5072404;28;20053;-64
2021/04/08 09:12:58;;;;;;;3.15;0.98;;;6.50;80.10;;;;;;5073603;28;20029;-64
2021/04/08 09:15:23;;;;;;;2.55;0.80;;;6.50;80.10;;;;;;5076103;28;20060;-64
2021/04/08 09:17:58;;;;;;;2.17;0.93;;;6.50;80.00;;;;;;5075282;28;20067;-64
2021/04/08 09:20:24;;;;;;;0.80;0.80;;;6.60;80.20;;;;;;5070198;28;20029;-64
2021/04/08 09:22:59;;;;;;;0.40;0.40;;;6.60;80.10;;;;;;5067636;28;20028;-64
2021/04/08 09:25:39;;;;;;;8.00;1.77;;;6.70;80.10;;;;;;5075022;28;20024;-63
2021/04/08 09:28:09;;;;;;;4.10;1.52;;;6.70;80.00;;;;;;5076120;28;20032;-63
2021/04/08 09:33:40;;;;;;;13.43;1.40;;;6.80;79.90;;;;;;5067982;28;20033;-65
2021/04/08 09:36:21;;;;;;;5.63;1.85;;;6.90;79.80;;;;;;5058454;28;20032;-66
2021/04/08 09:38:55;;;;;;;5.57;2.05;;;6.90;79.70;;;;;;5066401;28;20083;-66
2021/04/08 09:41:45;;;;;;;4.40;1.52;;;6.90;79.40;;;;;;5070433;28;20032;-65
2021/04/08 09:44:12;;;;;;;5.85;1.67;;;6.90;79.00;;;;;;5074650;28;20047;-66
2021/04/08 09:46:59;;;;;;;8.63;1.80;;;6.90;78.90;;;;;;5073609;28;20543;-63
2021/04/08 09:49:40;;;;;;;4.38;1.77;;;6.90;79.00;;;;;;5071837;28;20028;-65
2021/04/08 09:52:10;;;;;;;2.45;1.40;;;6.90;78.90;;;;;;5075828;28;20135;-65
2021/04/08 09:54:42;;;;;;;8.48;2.13;;;6.90;78.60;;;;;;5074105;28;20039;-65
2021/04/08 09:57:09;;;;;;;7.65;2.03;;;6.90;78.50;;;;;;5074212;28;20107;-65
2021/04/08 09:59:56;;;;;;;8.02;2.13;;;7.00;78.30;;;;;;5073715;28;20029;-66
2021/04/08 10:02:23;;;;;;;9.48;2.00;;;7.00;78.10;;;;;;5074140;28;20032;-66
2021/04/08 10:05:11;;;;;;;6.40;2.00;;;7.10;77.90;;;;;;5072379;28;20037;-66
2021/04/08 10:08:10;;;;;;;5.35;1.90;;;7.10;77.40;;;;;;5070155;28;20086;-66
2021/04/08 10:10:36;;;;;;;7.63;1.70;;;7.10;77.10;;;;;;5056573;28;20175;-67
2021/04/08 10:13:17;;;;;;;6.95;2.20;;;7.20;77.00;;;;;;5073198;28;20159;-65
2021/04/08 10:15:43;;;;;;;5.93;1.95;;;7.20;77.10;;;;;;5073332;28;20391;-65
2021/04/08 10:18:27;;;;;;;6.07;1.70;;;7.30;77.00;;;;;;5072649;28;20099;-65
2021/04/08 10:20:56;;;;;;;1.67;1.10;;;7.30;77.20;;;;;;5072964;28;20477;-65
2021/04/08 10:23:33;;;;;;;7.05;2.22;;;7.40;77.00;;;;;;5073681;28;20032;-65
2021/04/08 10:26:17;;;;;;;3.60;1.90;;;7.40;76.70;;;;;;5058684;28;20033;-65
2021/04/08 10:28:43;;;;;;;7.07;1.95;;;7.50;76.50;;;;;;5063208;28;20039;-65
2021/04/08 10:31:30;;;;;;;2.83;1.52;;;7.60;76.10;;;;;;5070272;28;20036;-66
2021/04/08 10:34:02;;;;;;;3.50;1.33;;;7.60;75.90;;;;;;5070392;28;20443;-68
2021/04/08 10:36:30;;;;;;;3.47;1.80;;;7.70;75.80;;;;;;5068549;28;20662;-68
2021/04/08 10:39:26;;;;;;;5.22;1.77;;;7.70;75.70;;;;;;5071648;28;20025;-68
2021/04/08 10:42:09;;;;;;;7.28;2.28;;;7.80;75.20;;;;;;5069455;28;20044;-69
2021/04/08 10:44:37;;;;;;;3.72;1.88;;;7.80;74.40;;;;;;5073958;28;20056;-68
2021/04/08 10:47:15;;;;;;;3.67;2.00;;;7.80;74.20;;;;;;5073445;28;20025;-68
2021/04/08 10:49:46;;;;;;;4.13;1.90;;;7.80;74.30;;;;;;5072908;28;20037;-68
2021/04/08 10:52:24;;;;;;;4.68;2.22;;;7.80;74.70;;;;;;5070636;28;20040;-69
2021/04/08 10:54:53;;;;;;;5.63;2.75;;;7.80;74.60;;;;;;5073886;28;20388;-68
2021/04/08 10:57:20;;;;;;;2.05;1.70;;;7.90;74.30;;;;;;5071849;28;20095;-65
2021/04/08 10:59:47;;;;;;;4.63;1.92;;;7.90;73.40;;;;;;5069841;28;20021;-68
2021/04/08 11:02:31;;;;;;;4.53;2.50;;;7.90;72.90;;;;;;5060615;28;20041;-69
2021/04/08 11:05:02;;;;;;;2.72;2.00;;;8.00;72.40;;;;;;5054619;28;20119;-69
2021/04/08 11:07:34;;;;;;;6.85;3.22;;;8.00;72.00;;;;;;5071421;28;20028;-69
2021/04/08 11:10:07;;;;;;;7.35;3.50;;;8.00;70.80;;;;;;5072559;28;20041;-69
2021/04/08 11:12:33;;;;;;;;;;;7.90;69.50;;;;;;5069526;28;20034;-69
2021/04/08 11:15:00;;;;;;;5.50;2.85;;;7.90;69.60;;;;;;5072952;28;19908;-69
2021/04/08 11:17:28;;;;;;;6.68;3.10;;;7.80;69.10;;;;;;5072351;28;20036;-69
2021/04/08 11:19:56;;;;;;;5.85;3.53;;;7.80;69.30;;;;;;5073352;28;20376;-69
2021/04/08 11:22:25;;;;;;;5.97;3.40;;;7.90;69.00;;;;;;5072939;28;20056;-69
2021/04/08 11:24:52;;;;;;;7.80;3.10;;;7.80;69.30;;;;;;5048295;28;20059;-68
2021/04/08 11:27:40;;;;;;;5.13;2.10;;;7.90;67.90;;;;;;5072886;28;20103;-68
2021/04/08 11:30:08;;;;;;;4.72;2.65;;;7.80;68.70;;;;;;5067922;28;20637;-69
2021/04/08 11:32:54;;;;;;;8.05;2.50;;;7.90;69.50;;;;;;5071916;28;20078;-69
2021/04/08 11:35:29;;;;;;;4.82;2.97;;;8.00;70.10;;;;;;5072398;28;20029;-68
2021/04/08 11:38:14;;;;;;;9.10;3.53;;;8.00;69.00;;;;;;5066661;28;20044;-69
2021/04/08 11:40:52;;;;;;;10.07;3.60;;;8.10;67.80;;;;;;5068565;28;20024;-69
2021/04/08 11:43:17;;;;;;;6.07;3.40;;;8.00;67.90;;;;;;5072375;28;20472;-68
2021/04/08 11:45:43;;;;;;;9.30;3.63;;;8.00;67.40;;;;;;5071946;28;20024;-68
2021/04/08 11:48:09;;;;;;;4.60;3.15;;;8.10;67.20;;;;;;5072206;28;20024;-68
2021/04/08 11:50:42;;;;;;;9.18;2.80;;;8.10;67.30;;;;;;5072256;28;20036;-68
2021/04/08 11:53:18;;;;;;;5.30;3.25;;;8.10;67.60;;;;;;5055477;28;20068;-68
2021/04/08 11:55:50;;;;;;;4.90;3.15;;;8.10;67.30;;;;;;5070736;28;20400;-68
2021/04/08 11:58:26;;;;;;;6.50;3.33;;;8.20;67.30;;;;;;5072174;28;20032;-68
2021/04/08 12:00:53;;;;;;;5.88;3.83;;;8.20;67.40;;;;;;5066406;28;20032;-68
2021/04/08 12:03:26;;;;;;;6.13;3.30;;;8.30;67.10;;;;;;5071292;28;20035;-67
2021/04/08 12:05:52;;;;;;;10.07;3.33;;;8.30;66.50;;;;;;5071334;28;20124;-67
2021/04/08 12:08:40;;;;;;;8.85;3.45;;;8.30;67.30;;;;;;5058875;28;20024;-63
2021/04/08 12:11:13;;;;;;;5.85;3.13;;;8.40;67.30;;;;;;5071431;28;20048;-62
2021/04/08 12:13:41;;;;;;;6.50;3.00;;;8.40;67.30;;;;;;5071340;28;20494;-62
2021/04/08 12:16:23;;;;;;;5.00;3.17;;;8.40;66.90;;;;;;5053607;28;20032;-62
2021/04/08 12:18:50;;;;;;;6.32;4.03;;;8.50;67.10;;;;;;5071928;28;20052;-62
2021/04/08 12:21:20;;;;;;;6.45;4.18;;;8.50;67.00;;;;;;5071074;28;20044;-62
2021/04/08 12:23:46;;;;;;;7.88;4.57;;;8.60;67.00;;;;;;5071655;28;20607;-62
2021/04/08 12:26:12;;;;;;;7.55;4.38;;;8.70;66.80;;;;;;5071191;28;20043;-62
2021/04/08 12:28:40;;;;;;;7.85;4.45;;;8.70;66.00;;;;;;5063371;28;20028;-62
2021/04/08 12:31:06;;;;;;;7.75;3.88;;;8.60;66.00;;;;;;5070996;28;20134;-63
2021/04/08 12:33:37;;;;;;;7.57;4.75;;;8.70;67.10;;;;;;5071094;28;20479;-62
2021/04/08 12:36:24;;;;;;;6.32;4.43;;;8.80;67.50;;;;;;5068422;28;20090;-62
2021/04/08 12:38:50;;;;;;;8.23;4.45;;;8.80;68.00;;;;;;5070142;28;20040;-62
2021/04/08 12:41:15;;;;;;;9.25;4.70;;;8.90;68.60;;;;;;5068048;28;20089;-67
2021/04/08 12:43:41;;;;;;;11.65;4.78;;;9.00;68.20;;;;;;5065707;28;20111;-67
2021/04/08 12:46:07;;;;;;;6.88;4.47;;;9.10;67.80;;;;;;5070511;28;20039;-67
2021/04/08 12:48:35;;;;;;;8.90;5.22;;;9.10;67.60;;;;;;5064475;28;20661;-63
2021/04/08 12:51:01;;;;;;;10.35;5.55;;;9.10;67.90;;;;;;5070194;28;20044;-62
2021/04/08 12:53:27;;;;;;;9.85;7.30;;;9.10;68.20;;;;;;5070686;28;20052;-62
2021/04/08 12:55:55;;;;;;;11.35;7.43;;;9.20;67.50;;;;;;5067003;28;20399;-62
2021/04/08 12:58:21;;;;;;;11.77;6.72;;;9.20;67.00;;;;;;5065002;28;20055;-72
2021/04/08 13:00:48;;;;;;;12.05;5.18;;;9.20;67.30;;;;;;5063564;28;20025;-62
2021/04/08 13:03:14;;;;;;;11.90;5.57;;;9.30;67.50;;;;;;5064374;28;20103;-62
2021/04/08 13:05:42;;;;;;;16.00;5.63;;;9.30;67.40;;;;;;5065858;28;20476;-62
2021/04/08 13:08:09;;;;;;;7.47;5.35;;;9.30;67.70;;;;;;5053022;28;20495;-62
2021/04/08 13:10:36;;;;;;;8.48;5.10;;;9.40;67.00;;;;;;5052671;28;20048;-62